Pagina principale
METAR-TAF:

METAR-TAF

Aeroporti :

Milano, Italia

Aeroporto di Milano-Malpensa

latitudine: 45-37N, longitudine: 008-44E, altezza: 234 m

Osservazione

Il bollettino è stato emesso 36 minuti fa, alle 08:20 UTC
Vento 3 kt da nord-est, variando fra nord e est
Temperature 12°C
Umidità 94%
Pressione 1008 hPa
Visibilità: 5000 m
Cielo coperto ad un'altezza di 600 ft
foschia

METAR: LIMC 270820Z 04003KT 010V080 5000 BR OVC006 12/11 Q1008 REDZ NOSIG

Ora: 10:56 (08:56 UTC)

Previsione

Il bollettino è stato emesso 3 ore e 56 minuti fa, alle 05:00 UTC
Previsione valida dal 27 alle 06 UTC al 28 alle 12 UTC
Vento 7 kt da est
Visibilità: 5000 m
Nuvoloso ad un'altezza di 1000 ft
Nuvoloso ad un'altezza di 4000 ft
pioggia
Temporaneamente
dal 27 alle 18 UTC al 28 alle 03 UTC
temporale, pioggia

TAF: LIMC 270500Z 2706/2812 08007KT 5000 RA BKN010 BKN040 TEMPO 2718/2803 TSRA

Osservazioni e previsioni meteorologiche di più di 4000 aeroporti (messaggi METAR e TAF).

Le stazioni disponibili sono rappresentate dai dischi gialli e rossi sulla carta.

Puntare il mouse per vedere il nome della stazione.

Clicca sopra per visualizzare le osservazioni e previsioni meteorologiche.

Per cambiare la mappa : fare clic sui pulsanti verdi con una croce nera per ingrandire, il pulsante verde con un trattino per diminuire, o sulla freccia verde per le mappe adiacenti.


METAR-TAF: